Kinnelon, New Jersey
Current Conditions -  °F | °C
As of 2:53 PM on Wednesday 26 Nov 2014 (Local Time) from KCDW Reporting Station
Light Snow Light Snow  
Wind Chill: 28°   Ceiling: 500
Heat Index: 33°   Visibility: 2mi
Dew Point: 30°   Wind: 6mph
Humidity: 89%   Direction: 50°NE
Pressure: 29.89"   Gusts: NA
Location:  40.9863°N, 74.383°W
Report Text: KCDW 261953Z 05005KT 2SM -SN BR BKN005 OVC011 01/M01 A2989 RMK AO2 CIG 003V007 SLP128 P0006 T00061011
Loading
Personal Weather Stations






























Interactive Weather Map New forecast layout! Learn more

10-Day Weather Forecast

Advertisements
Track Severe Weather on mobile